Pagina principale
METAR-TAF:

METAR-TAF

Aeroporti :

Aeroporto Internazionale Simón Bolívar

Caracas, Venezuela

latitudine: 10-36N, longitudine: 066-59W, altezza: 43 m

Osservazione

Il bollettino è stato emesso 57 minuti fa, alle 23:00 UTC
Vento 5 kt da est
Temperature 27°C
Umidità 79%
Pressione 1010 hPa
Visibilità 10 km o più
Nuvoloso ad un'altezza di 1300 ft

METAR: SVMI 232300Z 09005KT 9999 BKN013 27/23 Q1010

Ora: 19:57 (23:57 UTC)

Previsione

Il bollettino è stato emesso 1 ora e 57 minuti fa, alle 22:00 UTC
Previsione valida dal 24 alle 00 UTC al 25 alle 00 UTC
Vento 11 kt da est
Visibilità 10 km o più
Nubi sparse ad un'altezza di 1600 ft
Evoluzione graduale
dal 24 alle 01 UTC al 24 alle 05 UTC
Vento 10 kt da est

TAF: SVMI 232200Z 2400/2500 09011KT 9999 SCT016 TX21/18Z TN24/08Z BECMG 2401/2405 09010KT

Osservazioni e previsioni meteorologiche di più di 4000 aeroporti (messaggi METAR e TAF).

Le stazioni disponibili sono rappresentate dai dischi gialli e rossi sulla carta.

Puntare il mouse per vedere il nome della stazione.

Clicca sopra per visualizzare le osservazioni e previsioni meteorologiche.

Per cambiare la mappa : fare clic sui pulsanti verdi con una croce nera per ingrandire, il pulsante verde con un trattino per diminuire, o sulla freccia verde per le mappe adiacenti.


METAR-TAF: